Time;durP1;ratioP1;P1;durP2;ratioP2;P2;SDS_P1;SDS_P2;PMS_P1;PMS_P2;Temp;Humidity;BMP_temperature;BMP_pressure;BME280_temperature;BME280_humidity;BME280_pressure;Samples;Min_cycle;Max_cycle;Signal;HPM_P1;HPM_P2
2023/03/13 00:02:04;;;;;;;11.73;4.00;;;;;;;;;;5083434;28;20191;-58
2023/03/13 00:04:30;;;;;;;8.37;3.60;;;;;;;;;;5086323;28;20180;-58
2023/03/13 00:06:56;;;;;;;11.13;3.87;;;;;;;;;;5086732;28;20573;-58
2023/03/13 00:09:22;;;;;;;11.77;4.47;;;;;;;;;;5085956;28;20184;-57
2023/03/13 00:11:49;;;;;;;11.20;4.20;;;;;;;;;;5091006;28;20754;-58
2023/03/13 00:14:15;;;;;;;14.30;4.33;;;;;;;;;;5086641;28;20180;-58
2023/03/13 00:16:41;;;;;;;14.53;4.77;;;;;;;;;;5085684;28;20264;-58
2023/03/13 00:19:07;;;;;;;6.97;3.60;;;;;;;;;;5087532;28;20206;-58
2023/03/13 00:21:36;;;;;;;12.77;4.53;;;;;;;;;;5082543;28;20209;-57
2023/03/13 00:24:02;;;;;;;14.30;4.60;;;;;;;;;;5078691;28;20578;-58
2023/03/13 00:26:29;;;;;;;14.73;4.40;;;;;;;;;;5089980;28;20236;-58
2023/03/13 00:28:55;;;;;;;13.17;4.37;;;;;;;;;;5084744;28;20191;-58
2023/03/13 00:31:29;;;;;;;18.40;3.93;;;;;;;;;;5088995;28;20176;-57
2023/03/13 00:33:57;;;;;;;14.30;4.77;;;;;;;;;;5086965;28;20191;-57
2023/03/13 00:36:24;;;;;;;8.70;3.30;;;;;;;;;;5084102;28;20234;-57
2023/03/13 00:38:51;;;;;;;10.70;3.90;;;;;;;;;;5091489;28;20990;-57
2023/03/13 00:41:18;;;;;;;12.20;3.87;;;;;;;;;;5097403;28;20175;-58
2023/03/13 00:43:45;;;;;;;8.93;3.73;;;;;;;;;;5093088;28;20247;-58
2023/03/13 00:46:11;;;;;;;8.83;4.43;;;;;;;;;;5092719;28;20237;-58
2023/03/13 00:48:37;;;;;;;11.33;5.00;;;;;;;;;;5082416;28;20248;-58
2023/03/13 00:51:04;;;;;;;10.17;4.53;;;;;;;;;;5096575;28;20191;-58
2023/03/13 00:53:30;;;;;;;11.77;3.83;;;;;;;;;;5089630;28;20636;-58
2023/03/13 00:55:57;;;;;;;12.13;4.03;;;;;;;;;;5096023;28;20986;-58
2023/03/13 00:58:26;;;;;;;14.47;5.30;;;;;;;;;;5093298;28;20184;-58
2023/03/13 01:00:52;;;;;;;10.17;3.83;;;;;;;;;;5080081;28;20259;-58
2023/03/13 01:03:18;;;;;;;13.13;4.00;;;;;;;;;;5082949;28;20186;-58
2023/03/13 01:05:45;;;;;;;12.03;3.43;;;;;;;;;;5090761;28;20183;-58
2023/03/13 01:08:11;;;;;;;14.07;4.10;;;;;;;;;;5092424;28;20206;-58
2023/03/13 01:10:37;;;;;;;9.03;3.53;;;;;;;;;;5087478;28;20532;-58
2023/03/13 01:13:04;;;;;;;11.10;3.90;;;;;;;;;;5090848;28;20542;-58
2023/03/13 01:15:30;;;;;;;8.53;3.73;;;;;;;;;;5093535;28;20253;-59
2023/03/13 01:17:56;;;;;;;12.33;4.27;;;;;;;;;;5081207;28;20711;-57
2023/03/13 01:20:22;;;;;;;12.43;4.20;;;;;;;;;;5093814;28;20635;-58
2023/03/13 01:22:48;;;;;;;16.97;3.90;;;;;;;;;;5091653;28;20211;-58
2023/03/13 01:25:16;;;;;;;12.83;4.23;;;;;;;;;;5084963;28;20565;-58
2023/03/13 01:27:42;;;;;;;11.77;3.70;;;;;;;;;;5094809;28;20171;-58
2023/03/13 01:30:09;;;;;;;12.03;3.87;;;;;;;;;;5088641;28;20183;-58
2023/03/13 01:32:35;;;;;;;13.23;4.47;;;;;;;;;;5079912;28;20682;-58
2023/03/13 01:35:01;;;;;;;12.93;4.03;;;;;;;;;;5087424;28;20276;-58
2023/03/13 01:37:27;;;;;;;10.07;4.20;;;;;;;;;;5082150;28;20353;-58
2023/03/13 01:39:53;;;;;;;10.30;3.33;;;;;;;;;;5085546;28;20626;-58
2023/03/13 01:42:19;;;;;;;11.23;4.40;;;;;;;;;;5082976;28;20295;-58
2023/03/13 01:44:50;;;;;;;16.70;4.60;;;;;;;;;;5082969;28;20192;-58
2023/03/13 01:47:16;;;;;;;9.23;3.70;;;;;;;;;;5077741;28;20184;-58
2023/03/13 01:49:43;;;;;;;14.27;4.23;;;;;;;;;;5077826;28;20661;-58
2023/03/13 01:52:30;;;;;;;10.77;4.10;;;;;;;;;;5079572;28;20187;-58
2023/03/13 01:54:56;;;;;;;12.43;4.60;;;;;;;;;;5078606;28;20178;-58
2023/03/13 01:57:26;;;;;;;13.87;3.43;;;;;;;;;;5083371;28;20207;-58
2023/03/13 01:59:56;;;;;;;15.00;5.17;;;;;;;;;;5080338;28;20183;-60
2023/03/13 02:02:23;;;;;;;13.73;3.90;;;;;;;;;;5082684;28;20187;-58
2023/03/13 02:04:52;;;;;;;10.87;3.90;;;;;;;;;;5080070;28;20271;-58
2023/03/13 02:07:19;;;;;;;11.87;3.80;;;;;;;;;;5077935;28;20188;-58
2023/03/13 02:09:50;;;;;;;10.30;5.07;;;;;;;;;;5083676;28;20352;-58
2023/03/13 02:12:18;;;;;;;16.90;5.50;;;;;;;;;;5082592;28;20204;-58
2023/03/13 02:14:45;;;;;;;15.17;4.83;;;;;;;;;;5082639;28;20183;-58
2023/03/13 02:17:11;;;;;;;13.47;4.03;;;;;;;;;;5076161;28;20207;-58
2023/03/13 02:19:42;;;;;;;13.27;4.23;;;;;;;;;;5081517;28;20175;-57
2023/03/13 02:22:27;;;;;;;12.77;4.40;;;;;;;;;;5086653;28;20628;-58
2023/03/13 02:25:12;;;;;;;11.10;3.77;;;;;;;;;;5083367;28;20531;-58
2023/03/13 02:27:39;;;;;;;10.27;3.53;;;;;;;;;;5080899;28;20184;-59
2023/03/13 02:30:06;;;;;;;12.13;4.63;;;;;;;;;;5084440;28;20195;-63
2023/03/13 02:32:32;;;;;;;8.33;3.93;;;;;;;;;;5085351;28;20175;-59
2023/03/13 02:35:02;;;;;;;12.10;4.10;;;;;;;;;;5079164;28;20479;-60
2023/03/13 02:37:29;;;;;;;6.37;3.80;;;;;;;;;;5085939;28;20211;-59
2023/03/13 02:39:56;;;;;;;10.10;3.77;;;;;;;;;;5086400;28;20184;-58
2023/03/13 02:42:23;;;;;;;11.63;4.30;;;;;;;;;;5086676;28;20541;-58
2023/03/13 02:44:50;;;;;;;12.33;4.10;;;;;;;;;;5080643;28;20180;-58
2023/03/13 02:47:17;;;;;;;9.43;3.60;;;;;;;;;;5085177;28;20186;-58
2023/03/13 02:49:43;;;;;;;10.23;3.57;;;;;;;;;;5085908;28;20176;-57
2023/03/13 02:52:14;;;;;;;11.43;4.67;;;;;;;;;;5076892;28;20208;-58
2023/03/13 02:54:40;;;;;;;13.47;4.10;;;;;;;;;;5082840;28;20266;-58
2023/03/13 02:57:07;;;;;;;8.67;3.73;;;;;;;;;;5080773;28;20333;-58
2023/03/13 02:59:34;;;;;;;10.03;3.53;;;;;;;;;;5077060;28;20187;-57
2023/03/13 03:02:00;;;;;;;9.37;3.17;;;;;;;;;;5076560;28;20203;-58
2023/03/13 03:04:26;;;;;;;7.37;3.07;;;;;;;;;;5081639;28;20176;-57
2023/03/13 03:06:52;;;;;;;10.13;3.23;;;;;;;;;;5084901;28;20187;-58
2023/03/13 03:09:19;;;;;;;8.67;3.23;;;;;;;;;;5080304;28;20268;-58
2023/03/13 03:11:45;;;;;;;5.87;3.00;;;;;;;;;;5079021;28;20212;-58
2023/03/13 03:14:12;;;;;;;9.20;3.30;;;;;;;;;;5085148;28;20191;-58
2023/03/13 03:16:38;;;;;;;7.33;3.33;;;;;;;;;;5068233;28;20261;-58
2023/03/13 03:19:08;;;;;;;7.00;3.47;;;;;;;;;;5081863;28;20187;-58
2023/03/13 03:21:34;;;;;;;7.47;3.37;;;;;;;;;;5073704;28;20228;-57
2023/03/13 03:24:00;;;;;;;5.10;2.67;;;;;;;;;;5087326;28;20186;-57
2023/03/13 03:26:26;;;;;;;4.73;2.03;;;;;;;;;;5087254;28;20343;-58
2023/03/13 03:28:52;;;;;;;5.87;2.33;;;;;;;;;;5088119;28;20275;-58
2023/03/13 03:31:19;;;;;;;7.33;3.03;;;;;;;;;;5085532;28;20207;-58
2023/03/13 03:33:45;;;;;;;6.37;2.17;;;;;;;;;;5085806;28;20913;-58
2023/03/13 03:36:16;;;;;;;8.33;2.73;;;;;;;;;;5088576;28;20195;-57
2023/03/13 03:38:42;;;;;;;5.30;2.57;;;;;;;;;;5092618;28;20223;-57
2023/03/13 03:41:09;;;;;;;9.10;3.70;;;;;;;;;;5079248;28;20177;-57
2023/03/13 03:43:35;;;;;;;8.70;2.83;;;;;;;;;;5091923;28;20271;-58
2023/03/13 03:46:01;;;;;;;5.37;2.77;;;;;;;;;;5086976;28;20677;-58
2023/03/13 03:48:28;;;;;;;4.37;2.33;;;;;;;;;;5091043;28;20248;-57
2023/03/13 03:50:54;;;;;;;3.77;2.23;;;;;;;;;;5085359;28;20185;-58
2023/03/13 03:53:20;;;;;;;4.40;2.57;;;;;;;;;;5084029;28;21560;-58
2023/03/13 03:55:46;;;;;;;8.00;2.17;;;;;;;;;;5088090;28;20189;-58
2023/03/13 03:58:12;;;;;;;3.23;1.93;;;;;;;;;;5087930;28;20502;-58
2023/03/13 04:00:38;;;;;;;3.47;1.93;;;;;;;;;;5083658;28;20180;-58
2023/03/13 04:03:04;;;;;;;4.27;2.10;;;;;;;;;;5087503;28;20226;-57
2023/03/13 04:05:30;;;;;;;3.70;1.63;;;;;;;;;;5074878;28;20178;-58
2023/03/13 04:07:56;;;;;;;5.77;2.37;;;;;;;;;;5086252;28;20198;-57
2023/03/13 04:10:22;;;;;;;2.37;1.90;;;;;;;;;;5081410;28;20232;-58
2023/03/13 04:12:48;;;;;;;3.07;1.93;;;;;;;;;;5090292;28;20190;-57
2023/03/13 04:15:14;;;;;;;2.30;2.10;;;;;;;;;;5088294;28;20411;-57
2023/03/13 04:17:40;;;;;;;4.07;1.90;;;;;;;;;;5083793;28;20235;-57
2023/03/13 04:20:07;;;;;;;2.70;1.80;;;;;;;;;;5092126;28;20617;-57
2023/03/13 04:22:33;;;;;;;1.77;1.33;;;;;;;;;;5099516;28;20218;-57
2023/03/13 04:25:00;;;;;;;2.00;1.60;;;;;;;;;;5082725;28;20183;-57
2023/03/13 04:27:26;;;;;;;3.10;1.70;;;;;;;;;;5095379;28;20527;-58
2023/03/13 04:29:52;;;;;;;2.87;1.90;;;;;;;;;;5092097;28;20524;-58
2023/03/13 04:32:18;;;;;;;2.90;1.60;;;;;;;;;;5099004;28;20223;-57
2023/03/13 04:34:44;;;;;;;2.67;1.60;;;;;;;;;;5086213;28;20266;-58
2023/03/13 04:37:10;;;;;;;2.53;1.50;;;;;;;;;;5094975;28;20310;-57
2023/03/13 04:39:36;;;;;;;3.23;2.00;;;;;;;;;;5088775;28;20314;-57
2023/03/13 04:42:02;;;;;;;1.80;1.70;;;;;;;;;;5089211;28;20180;-57
2023/03/13 04:44:28;;;;;;;2.53;1.80;;;;;;;;;;5084515;28;20268;-58
2023/03/13 04:46:54;;;;;;;2.37;1.67;;;;;;;;;;5089367;28;20184;-57
2023/03/13 04:49:20;;;;;;;2.73;2.00;;;;;;;;;;5073032;28;20262;-58
2023/03/13 04:51:46;;;;;;;2.10;1.60;;;;;;;;;;5089135;28;20677;-57
2023/03/13 04:54:12;;;;;;;2.10;1.90;;;;;;;;;;5086846;28;20185;-57
2023/03/13 04:56:39;;;;;;;1.63;1.53;;;;;;;;;;5081976;28;20204;-57
2023/03/13 04:59:05;;;;;;;2.20;1.63;;;;;;;;;;5080863;28;20264;-57
2023/03/13 05:01:31;;;;;;;1.73;1.63;;;;;;;;;;5077074;28;20618;-58
2023/03/13 05:03:57;;;;;;;4.50;2.27;;;;;;;;;;5084620;28;20195;-58
2023/03/13 05:06:23;;;;;;;3.27;1.80;;;;;;;;;;5077839;28;20184;-57
2023/03/13 05:08:49;;;;;;;2.77;1.80;;;;;;;;;;5086924;28;20183;-57
2023/03/13 05:11:15;;;;;;;1.90;1.80;;;;;;;;;;5080822;28;20203;-58
2023/03/13 05:13:41;;;;;;;3.00;1.90;;;;;;;;;;5076333;28;20187;-58
2023/03/13 05:16:07;;;;;;;2.20;2.00;;;;;;;;;;5082740;28;20564;-56
2023/03/13 05:18:34;;;;;;;2.10;1.90;;;;;;;;;;5085587;28;20241;-56
2023/03/13 05:21:00;;;;;;;2.67;2.07;;;;;;;;;;5085304;28;20204;-56
2023/03/13 05:23:27;;;;;;;2.30;2.10;;;;;;;;;;5073156;28;20534;-56
2023/03/13 05:25:53;;;;;;;2.63;2.43;;;;;;;;;;5074687;28;20685;-57
2023/03/13 05:28:19;;;;;;;2.47;2.27;;;;;;;;;;5079586;28;20967;-57
2023/03/13 05:30:45;;;;;;;3.53;2.67;;;;;;;;;;5085358;28;20192;-58
2023/03/13 05:33:11;;;;;;;4.37;3.90;;;;;;;;;;5081332;28;20581;-57
2023/03/13 05:35:37;;;;;;;3.27;2.90;;;;;;;;;;5080896;28;20190;-57
2023/03/13 05:38:03;;;;;;;3.13;2.47;;;;;;;;;;5080133;28;20277;-57
2023/03/13 05:40:29;;;;;;;3.40;2.83;;;;;;;;;;5063416;28;20196;-57
2023/03/13 05:42:55;;;;;;;2.73;2.53;;;;;;;;;;5057491;28;20559;-57
2023/03/13 05:45:21;;;;;;;3.37;2.60;;;;;;;;;;5057162;28;20173;-57
2023/03/13 05:47:47;;;;;;;2.93;2.73;;;;;;;;;;5065172;28;20267;-57
2023/03/13 05:50:13;;;;;;;3.27;2.97;;;;;;;;;;5060612;28;20429;-58
2023/03/13 05:52:39;;;;;;;3.87;3.50;;;;;;;;;;5065931;28;20245;-58
2023/03/13 05:55:05;;;;;;;3.93;3.53;;;;;;;;;;5063540;28;20271;-57
2023/03/13 05:57:31;;;;;;;3.60;3.00;;;;;;;;;;5066213;28;20284;-58
2023/03/13 05:59:58;;;;;;;4.80;3.13;;;;;;;;;;5061142;28;20188;-58
2023/03/13 06:02:24;;;;;;;3.97;3.37;;;;;;;;;;5059914;28;20180;-58
2023/03/13 06:04:50;;;;;;;2.97;2.67;;;;;;;;;;5066335;28;20176;-57
2023/03/13 06:07:16;;;;;;;3.67;2.73;;;;;;;;;;5067298;28;20181;-57
2023/03/13 06:09:42;;;;;;;3.93;2.87;;;;;;;;;;5061038;28;20600;-57
2023/03/13 06:12:10;;;;;;;3.93;2.87;;;;;;;;;;5064890;28;20217;-57
2023/03/13 06:14:36;;;;;;;4.20;3.10;;;;;;;;;;5065740;28;20184;-58
2023/03/13 06:17:03;;;;;;;2.53;2.33;;;;;;;;;;5062117;28;20238;-57
2023/03/13 06:19:29;;;;;;;4.67;2.70;;;;;;;;;;5063782;28;20392;-58
2023/03/13 06:21:55;;;;;;;3.70;2.93;;;;;;;;;;5063661;28;20179;-58
2023/03/13 06:24:21;;;;;;;3.47;3.07;;;;;;;;;;5064845;28;20184;-57
2023/03/13 06:26:50;;;;;;;4.60;2.60;;;;;;;;;;5063780;28;20262;-58
2023/03/13 06:29:16;;;;;;;3.63;2.77;;;;;;;;;;5065005;28;20670;-58
2023/03/13 06:31:43;;;;;;;4.80;3.33;;;;;;;;;;5061455;28;20275;-58
2023/03/13 06:34:12;;;;;;;4.20;2.80;;;;;;;;;;5064195;28;20276;-58
2023/03/13 06:36:39;;;;;;;3.43;2.80;;;;;;;;;;5063080;28;20949;-58
2023/03/13 06:39:06;;;;;;;3.13;2.83;;;;;;;;;;5074704;28;20686;-58
2023/03/13 06:41:32;;;;;;;3.43;3.10;;;;;;;;;;5085414;28;20183;-54
2023/03/13 06:43:58;;;;;;;3.13;2.93;;;;;;;;;;5081159;28;20666;-53
2023/03/13 06:46:25;;;;;;;4.20;3.07;;;;;;;;;;5077644;28;20267;-55
2023/03/13 06:48:51;;;;;;;2.90;2.60;;;;;;;;;;5084499;28;20274;-53
2023/03/13 06:51:19;;;;;;;3.90;2.80;;;;;;;;;;5084289;28;20248;-53
2023/03/13 06:53:46;;;;;;;3.37;2.67;;;;;;;;;;5082746;28;20198;-53
2023/03/13 06:56:12;;;;;;;4.57;3.07;;;;;;;;;;5081873;28;20874;-56
2023/03/13 06:58:38;;;;;;;3.43;2.80;;;;;;;;;;5086657;28;20187;-56
2023/03/13 07:01:11;;;;;;;3.27;2.53;;;;;;;;;;5081090;28;20184;-52
2023/03/13 07:03:37;;;;;;;2.87;2.67;;;;;;;;;;5082095;28;20241;-52
2023/03/13 07:06:04;;;;;;;2.93;2.70;;;;;;;;;;5084179;28;20176;-53
2023/03/13 07:08:30;;;;;;;2.83;2.63;;;;;;;;;;5083838;28;20191;-53
2023/03/13 07:11:00;;;;;;;5.27;3.90;;;;;;;;;;5084359;28;20203;-53
2023/03/13 07:13:26;;;;;;;2.93;2.63;;;;;;;;;;5084138;28;20211;-53
2023/03/13 07:15:53;;;;;;;3.57;3.07;;;;;;;;;;5080890;28;20188;-53
2023/03/13 07:18:20;;;;;;;7.43;3.60;;;;;;;;;;5084699;28;20202;-54
2023/03/13 07:20:53;;;;;;;6.23;3.17;;;;;;;;;;5084828;28;20192;-54
2023/03/13 07:23:19;;;;;;;3.20;2.90;;;;;;;;;;5080414;28;20188;-53
2023/03/13 07:25:51;;;;;;;3.87;3.00;;;;;;;;;;5084328;28;20180;-54
2023/03/13 07:28:17;;;;;;;4.30;2.90;;;;;;;;;;5084297;28;20282;-54
2023/03/13 07:30:43;;;;;;;2.87;2.67;;;;;;;;;;5082713;28;20180;-54
2023/03/13 07:33:09;;;;;;;4.27;2.93;;;;;;;;;;5084311;28;20180;-55
2023/03/13 07:35:35;;;;;;;4.80;2.87;;;;;;;;;;5084796;28;20253;-53
2023/03/13 07:38:01;;;;;;;4.07;3.10;;;;;;;;;;5086318;28;20577;-53
2023/03/13 07:40:27;;;;;;;3.10;2.80;;;;;;;;;;5084379;28;20314;-53
2023/03/13 07:42:53;;;;;;;4.53;3.20;;;;;;;;;;5080841;28;20274;-53
2023/03/13 07:45:19;;;;;;;3.43;3.07;;;;;;;;;;5079036;28;20335;-53
2023/03/13 07:47:45;;;;;;;3.50;2.57;;;;;;;;;;5080052;28;20271;-53
2023/03/13 07:50:12;;;;;;;3.13;2.83;;;;;;;;;;5087733;28;20199;-53
2023/03/13 07:52:38;;;;;;;6.43;3.03;;;;;;;;;;5087892;28;20250;-53
2023/03/13 07:55:04;;;;;;;5.93;3.73;;;;;;;;;;5082121;28;20278;-52
2023/03/13 07:57:30;;;;;;;6.00;2.93;;;;;;;;;;5081310;28;20225;-53
2023/03/13 07:59:56;;;;;;;4.17;2.70;;;;;;;;;;5074305;28;20266;-54
2023/03/13 08:02:22;;;;;;;4.60;2.93;;;;;;;;;;5073344;28;20184;-54
2023/03/13 08:04:51;;;;;;;3.30;3.00;;;;;;;;;;5081855;28;20191;-53
2023/03/13 08:07:17;;;;;;;5.87;3.33;;;;;;;;;;5083334;28;20208;-52
2023/03/13 08:09:43;;;;;;;5.67;3.23;;;;;;;;;;5093570;28;20188;-52
2023/03/13 08:12:09;;;;;;;4.07;2.97;;;;;;;;;;5084732;28;20453;-53
2023/03/13 08:14:35;;;;;;;5.93;3.17;;;;;;;;;;5076374;28;20575;-53
2023/03/13 08:17:01;;;;;;;4.50;3.10;;;;;;;;;;5082496;28;20684;-53
2023/03/13 08:19:28;;;;;;;3.27;2.97;;;;;;;;;;5086498;28;20175;-53
2023/03/13 08:21:54;;;;;;;5.30;3.30;;;;;;;;;;5090584;28;20180;-54
2023/03/13 08:24:20;;;;;;;6.00;4.43;;;;;;;;;;5084935;28;20184;-53
2023/03/13 08:26:46;;;;;;;3.37;2.73;;;;;;;;;;5088491;28;20188;-53
2023/03/13 08:29:13;;;;;;;6.70;3.80;;;;;;;;;;5080464;28;20180;-53
2023/03/13 08:31:42;;;;;;;4.97;3.00;;;;;;;;;;5079110;28;20282;-53
2023/03/13 08:34:08;;;;;;;3.40;3.10;;;;;;;;;;5086915;28;20291;-53
2023/03/13 08:36:35;;;;;;;6.97;3.27;;;;;;;;;;5085390;28;20199;-54
2023/03/13 08:39:03;;;;;;;6.77;3.37;;;;;;;;;;5069965;28;20795;-54
2023/03/13 08:41:33;;;;;;;4.30;3.50;;;;;;;;;;5057037;28;20337;-54
2023/03/13 08:43:59;;;;;;;9.97;3.70;;;;;;;;;;5053671;28;20704;-54
2023/03/13 08:46:26;;;;;;;6.37;3.63;;;;;;;;;;5055351;28;20193;-54
2023/03/13 08:48:52;;;;;;;4.13;3.23;;;;;;;;;;5058275;28;20627;-54
2023/03/13 08:51:19;;;;;;;4.40;2.80;;;;;;;;;;5056219;28;20590;-54
2023/03/13 08:53:46;;;;;;;5.00;3.10;;;;;;;;;;5059136;28;20193;-54
2023/03/13 08:56:13;;;;;;;4.33;2.90;;;;;;;;;;5054515;28;20688;-53
2023/03/13 08:58:39;;;;;;;5.77;3.40;;;;;;;;;;5060581;28;20189;-54
2023/03/13 09:01:07;;;;;;;8.00;3.33;;;;;;;;;;5058707;28;20194;-55
2023/03/13 09:03:33;;;;;;;8.23;3.17;;;;;;;;;;5061433;28;20203;-55
2023/03/13 09:06:00;;;;;;;6.73;3.20;;;;;;;;;;5060985;28;20725;-52
2023/03/13 09:08:26;;;;;;;5.10;3.10;;;;;;;;;;5055794;28;20184;-53
2023/03/13 09:10:59;;;;;;;5.70;3.23;;;;;;;;;;5053152;28;20208;-53
2023/03/13 09:13:26;;;;;;;3.50;2.60;;;;;;;;;;5060871;28;20172;-53
2023/03/13 09:15:56;;;;;;;5.20;3.13;;;;;;;;;;5056625;28;20191;-53
2023/03/13 09:18:23;;;;;;;4.50;2.77;;;;;;;;;;5064195;28;20192;-53
2023/03/13 09:20:49;;;;;;;4.20;3.03;;;;;;;;;;5057089;28;20211;-53
2023/03/13 09:23:15;;;;;;;5.37;3.27;;;;;;;;;;5064418;28;20184;-53
2023/03/13 09:25:41;;;;;;;4.57;3.10;;;;;;;;;;5062776;28;20185;-53
2023/03/13 09:28:07;;;;;;;5.43;3.23;;;;;;;;;;5059397;28;20201;-53
2023/03/13 09:30:33;;;;;;;7.47;3.60;;;;;;;;;;5054369;28;20267;-53
2023/03/13 09:32:59;;;;;;;4.43;3.23;;;;;;;;;;5054266;28;20901;-52
2023/03/13 09:35:25;;;;;;;8.43;3.27;;;;;;;;;;5060963;28;20193;-53
2023/03/13 09:37:51;;;;;;;3.30;3.00;;;;;;;;;;5063725;28;20236;-53
2023/03/13 09:40:19;;;;;;;4.27;3.20;;;;;;;;;;5079754;28;20183;-53
2023/03/13 09:42:50;;;;;;;4.07;2.93;;;;;;;;;;5087799;28;20198;-52
2023/03/13 09:45:42;;;;;;;4.73;3.30;;;;;;;;;;5086614;28;20275;-53
2023/03/13 09:48:35;;;;;;;4.17;2.83;;;;;;;;;;5076706;28;20658;-52
2023/03/13 09:51:05;;;;;;;5.35;3.58;;;;;;;;;;5076363;28;20435;-56
2023/03/13 09:53:57;;;;;;;4.07;3.70;;;;;;;;;;5085829;28;20209;-56
2023/03/13 09:56:24;;;;;;;3.50;3.20;;;;;;;;;;5051668;28;20214;-55
2023/03/13 09:58:55;;;;;;;5.03;3.77;;;;;;;;;;5080108;28;20208;-56
2023/03/13 10:01:24;;;;;;;3.93;3.30;;;;;;;;;;5084748;28;20258;-56
2023/03/13 10:03:55;;;;;;;3.37;3.07;;;;;;;;;;5086920;28;20547;-55
2023/03/13 10:06:23;;;;;;;8.13;3.40;;;;;;;;;;5080417;28;20328;-55
2023/03/13 10:08:51;;;;;;;4.43;3.50;;;;;;;;;;5086301;28;20790;-55
2023/03/13 10:11:26;;;;;;;3.77;3.40;;;;;;;;;;5082824;28;20189;-56
2023/03/13 10:14:06;;;;;;;6.77;3.43;;;;;;;;;;5084743;28;20183;-56
2023/03/13 10:16:44;;;;;;;3.80;3.50;;;;;;;;;;5082282;28;20202;-56
2023/03/13 10:19:17;;;;;;;4.77;3.20;;;;;;;;;;5085447;28;20599;-56
2023/03/13 10:21:47;;;;;;;3.73;3.10;;;;;;;;;;5081335;28;20202;-55
2023/03/13 10:24:26;;;;;;;5.13;3.83;;;;;;;;;;5081071;28;20180;-56
2023/03/13 10:26:56;;;;;;;3.63;3.33;;;;;;;;;;5080276;28;20232;-56
2023/03/13 10:29:25;;;;;;;7.23;3.37;;;;;;;;;;5088794;28;20179;-56
2023/03/13 10:31:56;;;;;;;5.33;3.37;;;;;;;;;;5081697;28;20179;-55
2023/03/13 10:34:23;;;;;;;3.43;3.13;;;;;;;;;;5087086;28;20200;-55
2023/03/13 10:36:54;;;;;;;3.70;3.40;;;;;;;;;;5087728;28;20256;-55
2023/03/13 10:39:24;;;;;;;4.33;3.53;;;;;;;;;;5078803;28;20231;-55
2023/03/13 10:41:55;;;;;;;3.33;3.03;;;;;;;;;;5083405;28;20180;-55
2023/03/13 10:44:23;;;;;;;4.03;3.13;;;;;;;;;;5091946;28;20615;-55
2023/03/13 10:46:50;;;;;;;3.63;2.53;;;;;;;;;;5085924;28;20183;-55
2023/03/13 10:49:20;;;;;;;5.00;2.83;;;;;;;;;;5092544;28;20307;-55
2023/03/13 10:51:47;;;;;;;3.43;3.03;;;;;;;;;;5075504;28;20187;-56
2023/03/13 10:54:22;;;;;;;3.57;3.20;;;;;;;;;;5080698;28;20727;-56
2023/03/13 10:56:48;;;;;;;3.37;3.07;;;;;;;;;;5084000;28;20207;-55
2023/03/13 10:59:38;;;;;;;3.27;2.97;;;;;;;;;;5082592;28;20190;-57
2023/03/13 11:02:19;;;;;;;5.97;2.60;;;;;;;;;;5087849;28;20282;-56
2023/03/13 11:04:48;;;;;;;2.90;2.70;;;;;;;;;;5087184;28;20186;-55
2023/03/13 11:07:21;;;;;;;3.20;2.50;;;;;;;;;;5094929;28;20210;-55
2023/03/13 11:09:59;;;;;;;3.30;2.57;;;;;;;;;;5088991;28;20241;-57
2023/03/13 11:12:26;;;;;;;3.87;2.47;;;;;;;;;;5094946;28;20283;-57
2023/03/13 11:15:01;;;;;;;3.30;2.30;;;;;;;;;;5082304;28;20215;-57
2023/03/13 11:17:37;;;;;;;3.63;2.57;;;;;;;;;;5088076;28;20338;-57
2023/03/13 11:20:22;;;;;;;2.87;2.63;;;;;;;;;;5081502;28;20183;-57
2023/03/13 11:23:08;;;;;;;4.17;2.80;;;;;;;;;;5081695;28;20214;-57
2023/03/13 11:25:42;;;;;;;2.83;2.50;;;;;;;;;;5066461;28;20701;-57
2023/03/13 11:28:24;;;;;;;2.60;2.40;;;;;;;;;;5077853;28;20186;-57
2023/03/13 11:31:02;;;;;;;3.00;2.23;;;;;;;;;;5077365;28;20187;-56
2023/03/13 11:33:41;;;;;;;3.93;2.23;;;;;;;;;;5077398;28;20588;-57
2023/03/13 11:36:34;;;;;;;3.30;2.70;;;;;;;;;;5075867;28;20183;-56
2023/03/13 11:39:18;;;;;;;2.67;2.47;;;;;;;;;;5077369;28;20694;-56
2023/03/13 11:41:48;;;;;;;4.30;2.63;;;;;;;;;;5079487;28;20195;-56
2023/03/13 11:44:22;;;;;;;2.47;2.27;;;;;;;;;;5080495;28;20179;-57
2023/03/13 11:47:07;;;;;;;3.10;2.30;;;;;;;;;;5084714;28;20800;-56
2023/03/13 11:49:36;;;;;;;2.30;2.10;;;;;;;;;;5079753;28;20172;-56
2023/03/13 11:52:20;;;;;;;2.50;2.30;;;;;;;;;;5082029;28;20189;-56
2023/03/13 11:54:49;;;;;;;1.90;1.80;;;;;;;;;;5082122;28;20175;-57
2023/03/13 11:57:15;;;;;;;2.20;2.00;;;;;;;;;;5082256;28;20598;-57
2023/03/13 12:00:08;;;;;;;2.60;2.40;;;;;;;;;;5084389;28;20180;-57
2023/03/13 12:02:41;;;;;;;3.47;1.90;;;;;;;;;;5084923;28;20635;-57
2023/03/13 12:05:09;;;;;;;2.30;2.10;;;;;;;;;;5078527;28;20274;-57
2023/03/13 12:07:41;;;;;;;2.10;1.97;;;;;;;;;;5083524;28;20183;-58
2023/03/13 12:10:15;;;;;;;2.03;1.93;;;;;;;;;;5087902;28;20630;-57
2023/03/13 12:12:47;;;;;;;2.00;1.90;;;;;;;;;;5086840;28;20203;-56
2023/03/13 12:15:16;;;;;;;1.90;1.80;;;;;;;;;;5082941;28;20247;-58
2023/03/13 12:17:46;;;;;;;2.13;1.90;;;;;;;;;;5087348;28;20287;-59
2023/03/13 12:20:21;;;;;;;3.77;1.80;;;;;;;;;;5077780;28;20186;-60
2023/03/13 12:22:54;;;;;;;2.20;2.10;;;;;;;;;;5084446;28;20237;-59
2023/03/13 12:25:25;;;;;;;2.23;1.90;;;;;;;;;;5086400;28;20656;-58
2023/03/13 12:27:53;;;;;;;1.67;1.57;;;;;;;;;;5086206;28;20208;-58
2023/03/13 12:30:25;;;;;;;2.60;1.90;;;;;;;;;;5084861;28;20233;-58
2023/03/13 12:33:02;;;;;;;3.17;2.37;;;;;;;;;;5084933;28;20199;-58
2023/03/13 12:35:28;;;;;;;2.33;1.90;;;;;;;;;;5083344;28;20233;-59
2023/03/13 12:38:14;;;;;;;2.23;1.80;;;;;;;;;;5083477;28;20227;-58
2023/03/13 12:40:47;;;;;;;2.20;2.00;;;;;;;;;;5084824;28;20192;-58
2023/03/13 12:43:21;;;;;;;2.10;1.93;;;;;;;;;;5089074;28;20172;-58
2023/03/13 12:46:01;;;;;;;2.53;1.73;;;;;;;;;;5086539;28;20208;-59
2023/03/13 12:48:27;;;;;;;1.97;1.70;;;;;;;;;;5082586;28;20263;-59
2023/03/13 12:51:05;;;;;;;2.23;2.00;;;;;;;;;;5082553;28;20286;-59
2023/03/13 12:53:34;;;;;;;2.00;1.80;;;;;;;;;;5080572;28;20190;-59
2023/03/13 12:56:00;;;;;;;1.80;1.70;;;;;;;;;;5081693;28;21996;-59
2023/03/13 12:58:30;;;;;;;1.90;1.80;;;;;;;;;;5082073;28;20176;-59
2023/03/13 13:00:57;;;;;;;2.10;1.93;;;;;;;;;;5080479;28;20671;-59
2023/03/13 13:03:30;;;;;;;2.90;2.70;;;;;;;;;;5085041;28;20518;-59
2023/03/13 13:06:04;;;;;;;2.00;1.90;;;;;;;;;;5076461;28;20514;-60
2023/03/13 13:08:33;;;;;;;2.20;1.80;;;;;;;;;;5082029;28;20182;-60
2023/03/13 13:11:17;;;;;;;2.73;1.80;;;;;;;;;;5085022;28;20192;-59
2023/03/13 13:13:43;;;;;;;1.53;1.43;;;;;;;;;;5085580;28;20469;-60
2023/03/13 13:16:16;;;;;;;1.70;1.60;;;;;;;;;;5084679;28;20536;-59
2023/03/13 13:18:42;;;;;;;2.10;1.70;;;;;;;;;;5080889;28;20524;-59
2023/03/13 13:21:14;;;;;;;2.87;2.57;;;;;;;;;;5083989;28;20180;-59
2023/03/13 13:23:45;;;;;;;2.67;1.93;;;;;;;;;;5080594;28;20195;-59
2023/03/13 13:26:29;;;;;;;2.17;1.70;;;;;;;;;;5082080;28;20265;-59
2023/03/13 13:28:56;;;;;;;1.93;1.80;;;;;;;;;;5082602;28;20184;-59
2023/03/13 13:31:41;;;;;;;2.67;2.47;;;;;;;;;;5080051;28;20221;-59
2023/03/13 13:34:07;;;;;;;2.10;1.90;;;;;;;;;;5083938;28;20181;-58
2023/03/13 13:36:40;;;;;;;2.70;1.73;;;;;;;;;;5082686;28;20205;-58
2023/03/13 13:39:22;;;;;;;1.70;1.60;;;;;;;;;;5081961;28;20751;-58
2023/03/13 13:41:48;;;;;;;1.90;1.80;;;;;;;;;;5093207;28;20200;-59
2023/03/13 13:44:20;;;;;;;1.90;1.80;;;;;;;;;;5087725;28;20545;-59
2023/03/13 13:46:46;;;;;;;2.00;1.90;;;;;;;;;;5079790;28;20220;-59
2023/03/13 13:49:20;;;;;;;2.70;1.90;;;;;;;;;;5076832;28;20184;-59
2023/03/13 13:51:58;;;;;;;1.90;1.80;;;;;;;;;;5086915;28;20642;-59
2023/03/13 13:54:53;;;;;;;2.23;2.13;;;;;;;;;;5078338;28;20182;-58
2023/03/13 13:57:21;;;;;;;2.37;2.00;;;;;;;;;;5081639;28;20561;-58
2023/03/13 13:59:50;;;;;;;2.70;2.60;;;;;;;;;;5074062;28;20180;-58
2023/03/13 14:02:18;;;;;;;2.07;1.80;;;;;;;;;;5081459;28;20255;-58
2023/03/13 14:04:44;;;;;;;2.63;2.40;;;;;;;;;;5081308;28;20181;-58
2023/03/13 14:07:14;;;;;;;1.80;1.70;;;;;;;;;;5080489;28;20306;-58
2023/03/13 14:09:47;;;;;;;2.30;2.10;;;;;;;;;;5079770;28;20596;-58
2023/03/13 14:12:32;;;;;;;1.90;1.80;;;;;;;;;;5085511;28;20204;-57
2023/03/13 14:15:08;;;;;;;1.97;1.87;;;;;;;;;;5071920;28;20318;-57
2023/03/13 14:17:49;;;;;;;2.33;2.00;;;;;;;;;;5078388;28;20228;-58
2023/03/13 14:20:18;;;;;;;2.40;2.20;;;;;;;;;;5078392;28;20181;-57
2023/03/13 14:22:47;;;;;;;2.43;2.23;;;;;;;;;;5085789;28;20271;-58
2023/03/13 14:25:13;;;;;;;2.13;1.90;;;;;;;;;;5079600;28;20592;-58
2023/03/13 14:27:43;;;;;;;1.90;1.80;;;;;;;;;;5083631;28;20185;-58
2023/03/13 14:30:10;;;;;;;2.30;2.17;;;;;;;;;;5081807;28;20248;-58
2023/03/13 14:32:36;;;;;;;2.13;2.03;;;;;;;;;;5078574;28;20497;-58
2023/03/13 14:35:06;;;;;;;2.07;1.80;;;;;;;;;;5066186;28;20188;-58
2023/03/13 14:37:43;;;;;;;1.97;1.83;;;;;;;;;;5083632;28;20209;-58
2023/03/13 14:40:29;;;;;;;2.03;1.83;;;;;;;;;;5081519;28;20612;-59
2023/03/13 14:42:57;;;;;;;2.20;2.00;;;;;;;;;;5077851;28;20509;-58
2023/03/13 14:45:25;;;;;;;2.30;1.90;;;;;;;;;;5075308;28;20253;-58
2023/03/13 14:47:52;;;;;;;2.20;2.10;;;;;;;;;;5082142;28;20704;-58
2023/03/13 14:50:18;;;;;;;2.43;1.80;;;;;;;;;;5083310;28;20615;-59
2023/03/13 14:52:46;;;;;;;4.80;2.20;;;;;;;;;;5079497;28;20188;-59